createdAt,value
2023-07-03T00:00:53.009Z,99042.81
2023-07-03T00:03:21.515Z,99038.66
2023-07-03T00:05:50.013Z,99043.91
2023-07-03T00:08:19.775Z,99044.50
2023-07-03T00:10:47.962Z,99038.69
2023-07-03T00:13:16.089Z,99044.28
2023-07-03T00:15:44.515Z,99056.91
2023-07-03T00:18:12.943Z,99049.47
2023-07-03T00:20:41.116Z,99050.22
2023-07-03T00:23:09.237Z,99047.16
2023-07-03T00:25:39.854Z,99045.19
2023-07-03T00:28:08.562Z,99049.72
2023-07-03T00:30:37.778Z,99058.94
2023-07-03T00:33:05.912Z,99055.06
2023-07-03T00:35:33.989Z,99062.84
2023-07-03T00:38:02.759Z,99058.56
2023-07-03T00:40:30.898Z,99048.84
2023-07-03T00:43:02.007Z,99058.09
2023-07-03T00:45:30.296Z,99053.13
2023-07-03T00:47:59.822Z,99044.34
2023-07-03T00:50:28.373Z,99052.66
2023-07-03T00:53:01.330Z,99048.28
2023-07-03T00:55:29.736Z,99050.34
2023-07-03T00:57:57.795Z,99053.28
2023-07-03T01:00:34.942Z,99045.16
2023-07-03T01:03:09.483Z,99048.16
2023-07-03T01:05:44.553Z,99036.00
2023-07-03T01:08:13.241Z,99044.53
2023-07-03T01:10:42.289Z,99039.41
2023-07-03T01:13:15.423Z,99047.31
2023-07-03T01:15:46.926Z,99051.81
2023-07-03T01:18:18.290Z,99055.59
2023-07-03T01:20:51.979Z,99051.81
2023-07-03T01:23:31.244Z,99059.34
2023-07-03T01:26:06.847Z,99054.63
2023-07-03T01:28:37.258Z,99059.97
2023-07-03T01:31:08.873Z,99068.38
2023-07-03T01:33:41.571Z,99061.81
2023-07-03T01:36:13.488Z,99068.38
2023-07-03T01:38:44.175Z,99065.66
2023-07-03T01:41:16.602Z,99072.34
2023-07-03T01:43:46.559Z,99073.06
2023-07-03T01:46:15.765Z,99077.69
2023-07-03T01:48:44.749Z,99083.53
2023-07-03T01:51:20.915Z,99082.44
2023-07-03T01:53:54.989Z,99082.16
2023-07-03T01:56:30.816Z,99079.13
2023-07-03T01:59:05.393Z,99081.53
2023-07-03T02:01:42.989Z,99082.66
2023-07-03T02:04:19.481Z,99081.44
2023-07-03T02:06:49.728Z,99074.25
2023-07-03T02:09:18.721Z,99079.22
2023-07-03T02:11:53.428Z,99070.31
2023-07-03T02:14:22.043Z,99070.94
2023-07-03T02:16:50.164Z,99074.81
2023-07-03T02:19:18.659Z,99074.56
2023-07-03T02:21:46.858Z,99061.88
2023-07-03T02:24:15.520Z,99068.47
2023-07-03T02:26:44.125Z,99062.75
2023-07-03T02:29:13.866Z,99062.91
2023-07-03T02:31:41.956Z,99068.00
2023-07-03T02:34:10.171Z,99065.53
2023-07-03T02:36:39.405Z,99064.63
2023-07-03T02:39:10.569Z,99057.53
2023-07-03T02:41:38.808Z,99066.97
2023-07-03T02:44:06.898Z,99065.25
2023-07-03T02:46:37.797Z,99055.81
2023-07-03T02:49:06.048Z,99064.22
2023-07-03T02:51:34.178Z,99066.19
2023-07-03T02:54:06.646Z,99078.25
2023-07-03T02:56:35.009Z,99079.59
2023-07-03T02:59:03.557Z,99068.53
2023-07-03T03:01:35.452Z,99075.38
2023-07-03T03:04:05.401Z,99073.53
2023-07-03T03:06:34.310Z,99058.78
2023-07-03T03:09:02.588Z,99068.88
2023-07-03T03:11:33.468Z,99063.81
2023-07-03T03:14:01.937Z,99073.47
2023-07-03T03:16:30.745Z,99056.72
2023-07-03T03:18:59.010Z,99064.91
2023-07-03T03:21:28.727Z,99060.00
2023-07-03T03:23:56.980Z,99067.25
2023-07-03T03:26:26.126Z,99071.81
2023-07-03T03:28:54.324Z,99068.53
2023-07-03T03:31:23.046Z,99074.22
2023-07-03T03:33:58.366Z,99079.84
2023-07-03T03:36:28.284Z,99073.91
2023-07-03T03:38:56.602Z,99077.97
2023-07-03T03:41:25.351Z,99073.16
2023-07-03T03:43:54.217Z,99075.69
2023-07-03T03:46:25.191Z,99073.41
2023-07-03T03:48:53.706Z,99078.16
2023-07-03T03:51:21.897Z,99094.13
2023-07-03T03:53:52.792Z,99085.81
2023-07-03T03:56:21.621Z,99093.31
2023-07-03T03:58:49.722Z,99097.19
2023-07-03T04:01:17.910Z,99094.19
2023-07-03T04:03:46.908Z,99096.88
2023-07-03T04:06:17.452Z,99092.63
2023-07-03T04:08:45.601Z,99093.09
2023-07-03T04:11:15.203Z,99101.91
2023-07-03T04:13:43.520Z,99103.72
2023-07-03T04:16:12.106Z,99095.38
2023-07-03T04:18:41.890Z,99102.88
2023-07-03T04:21:10.136Z,99113.34
2023-07-03T04:23:38.191Z,99107.44
2023-07-03T04:26:06.501Z,99114.38
2023-07-03T04:28:36.132Z,99111.00
2023-07-03T04:31:04.722Z,99104.63
2023-07-03T04:33:32.980Z,99105.34
2023-07-03T04:36:00.992Z,99109.09
2023-07-03T04:38:29.172Z,99114.69
2023-07-03T04:40:57.676Z,99118.66
2023-07-03T04:43:26.732Z,99121.63
2023-07-03T04:45:57.534Z,99121.06
2023-07-03T04:48:25.931Z,99115.09
2023-07-03T04:50:53.999Z,99130.72
2023-07-03T04:53:22.816Z,99131.31
2023-07-03T04:55:51.571Z,99127.81
2023-07-03T04:58:19.920Z,99130.81
2023-07-03T05:00:48.331Z,99132.25
2023-07-03T05:03:18.641Z,99132.69
2023-07-03T05:05:46.935Z,99142.16
2023-07-03T05:08:15.196Z,99146.28
2023-07-03T05:10:43.273Z,99153.78
2023-07-03T05:13:11.317Z,99144.72
2023-07-03T05:15:39.621Z,99140.31
2023-07-03T05:18:07.870Z,99157.31
2023-07-03T05:20:37.401Z,99164.75
2023-07-03T05:23:05.448Z,99156.56
2023-07-03T05:25:33.633Z,99150.28
2023-07-03T05:28:01.715Z,99162.31
2023-07-03T05:30:29.918Z,99170.50
2023-07-03T05:32:58.482Z,99166.38
2023-07-03T05:35:26.890Z,99161.84
2023-07-03T05:37:57.594Z,99169.22
2023-07-03T05:40:26.196Z,99181.75
2023-07-03T05:42:55.817Z,99177.97
2023-07-03T05:45:25.372Z,99188.09
2023-07-03T05:47:54.162Z,99175.34
2023-07-03T05:50:22.952Z,99194.91
2023-07-03T05:52:51.586Z,99193.47
2023-07-03T05:55:22.068Z,99196.44
2023-07-03T05:57:50.559Z,99190.78
2023-07-03T06:00:19.392Z,99206.34
2023-07-03T06:02:49.580Z,99205.47
2023-07-03T06:05:18.013Z,99206.66
2023-07-03T06:07:46.139Z,99209.53
2023-07-03T06:10:15.007Z,99211.56
2023-07-03T06:12:45.104Z,99210.16
2023-07-03T06:15:13.840Z,99206.63
2023-07-03T06:17:43.540Z,99220.78
2023-07-03T06:20:12.645Z,99218.09
2023-07-03T06:22:41.713Z,99221.19
2023-07-03T06:25:10.472Z,99214.94
2023-07-03T06:27:38.521Z,99231.06
2023-07-03T06:30:10.006Z,99229.94
2023-07-03T06:32:38.833Z,99233.81
2023-07-03T06:35:07.626Z,99235.66
2023-07-03T06:37:37.272Z,99244.94
2023-07-03T06:40:10.686Z,99248.63
2023-07-03T06:42:39.556Z,99237.91
2023-07-03T06:45:15.901Z,99252.28
2023-07-03T06:47:45.244Z,99258.03
2023-07-03T06:50:14.423Z,99255.06
2023-07-03T06:52:43.853Z,99257.78
2023-07-03T06:55:15.302Z,99250.41
2023-07-03T06:57:43.642Z,99257.03
2023-07-03T07:00:13.046Z,99264.53
2023-07-03T07:02:42.837Z,99270.09
2023-07-03T07:05:11.533Z,99274.06
2023-07-03T07:07:39.766Z,99275.34
2023-07-03T07:10:09.002Z,99282.16
2023-07-03T07:12:37.198Z,99269.25
2023-07-03T07:15:06.395Z,99276.44
2023-07-03T07:17:50.496Z,99281.50
2023-07-03T07:20:21.192Z,99280.34
2023-07-03T07:22:50.693Z,99290.66
2023-07-03T07:25:18.814Z,99303.69
2023-07-03T07:27:47.574Z,99307.03
2023-07-03T07:30:16.060Z,99312.63
2023-07-03T07:32:45.606Z,99308.53
2023-07-03T07:35:13.828Z,99324.63
2023-07-03T07:37:43.242Z,99305.72
2023-07-03T07:40:12.641Z,99308.91
2023-07-03T07:42:41.847Z,99324.09
2023-07-03T07:45:10.699Z,99327.53
2023-07-03T07:47:39.598Z,99328.34
2023-07-03T07:50:08.951Z,99330.34
2023-07-03T07:52:37.812Z,99324.31
2023-07-03T07:55:08.550Z,99336.25
2023-07-03T07:57:36.620Z,99348.50
2023-07-03T08:00:06.651Z,99346.03
2023-07-03T08:02:40.326Z,99355.53
2023-07-03T08:05:09.987Z,99354.66
2023-07-03T08:07:38.183Z,99340.84
2023-07-03T08:10:08.949Z,99361.66
2023-07-03T08:12:37.117Z,99349.47
2023-07-03T08:15:06.362Z,99366.84
2023-07-03T08:17:35.171Z,99360.53
2023-07-03T08:20:03.405Z,99371.47
2023-07-03T08:22:32.287Z,99361.25
2023-07-03T08:25:00.354Z,99372.72
2023-07-03T08:27:29.757Z,99369.06
2023-07-03T08:29:58.573Z,99372.31
2023-07-03T08:32:26.717Z,99377.25
2023-07-03T08:37:25.916Z,99374.63
2023-07-03T08:39:54.169Z,99382.63
2023-07-03T08:42:26.081Z,99387.38
2023-07-03T08:44:56.352Z,99374.00
2023-07-03T08:47:29.362Z,99373.22
2023-07-03T08:49:59.594Z,99373.09
2023-07-03T08:52:33.184Z,99377.13
2023-07-03T08:55:02.393Z,99392.91
2023-07-03T08:57:33.596Z,99390.53
2023-07-03T09:00:04.966Z,99401.44
2023-07-03T09:02:38.413Z,99398.06
2023-07-03T09:05:24.177Z,99412.25
2023-07-03T09:07:56.294Z,99414.56
2023-07-03T09:10:27.944Z,99394.84
2023-07-03T09:13:02.190Z,99406.69
2023-07-03T09:15:37.201Z,99402.69
2023-07-03T09:18:14.028Z,99420.81
2023-07-03T09:20:44.236Z,99431.41
2023-07-03T09:23:19.571Z,99414.63
2023-07-03T09:25:52.252Z,99420.63
2023-07-03T09:28:21.275Z,99421.63
2023-07-03T09:30:51.610Z,99431.28
2023-07-03T09:33:21.122Z,99426.81
2023-07-03T09:35:49.982Z,99432.75
2023-07-03T09:38:22.918Z,99435.09
2023-07-03T09:40:59.336Z,99432.50
2023-07-03T09:43:30.749Z,99459.56
2023-07-03T09:46:09.307Z,99454.31
2023-07-03T09:48:38.434Z,99469.78
2023-07-03T09:51:08.719Z,99455.56
2023-07-03T09:53:41.489Z,99460.63
2023-07-03T09:56:16.408Z,99460.75
2023-07-03T09:58:51.356Z,99468.13
2023-07-03T10:06:40.246Z,99481.78
2023-07-03T10:11:58.266Z,99513.53
2023-07-03T10:14:32.348Z,99508.25
2023-07-03T10:17:03.466Z,99519.09
2023-07-03T10:19:35.983Z,99512.41
2023-07-03T10:22:06.072Z,99516.22
2023-07-03T10:24:37.001Z,99519.34
2023-07-03T10:27:06.107Z,99527.75
2023-07-03T10:29:38.618Z,99537.00
2023-07-03T10:32:14.368Z,99538.16
2023-07-03T10:34:49.795Z,99541.91
2023-07-03T10:37:20.953Z,99536.00
2023-07-03T10:39:54.371Z,99528.69
2023-07-03T10:42:27.668Z,99540.56
2023-07-03T10:45:02.323Z,99537.72
2023-07-03T10:47:38.418Z,99540.41
2023-07-03T10:50:09.832Z,99545.81
2023-07-03T10:52:50.262Z,99539.41
2023-07-03T10:55:26.493Z,99537.25
2023-07-03T10:58:03.366Z,99530.13
2023-07-03T11:00:44.360Z,99541.66
2023-07-03T11:03:24.728Z,99540.53
2023-07-03T11:06:00.764Z,99551.06
2023-07-03T11:08:38.022Z,99554.75
2023-07-03T11:11:15.629Z,99544.28
2023-07-03T11:13:53.011Z,99557.59
2023-07-03T11:16:27.278Z,99564.69
2023-07-03T11:24:29.471Z,99561.31
2023-07-03T11:29:37.583Z,99568.25
2023-07-03T11:32:09.189Z,99554.75
2023-07-03T11:40:38.930Z,99553.16
2023-07-03T11:46:10.790Z,99548.47
2023-07-03T11:48:49.374Z,99538.84
2023-07-03T11:51:32.978Z,99548.63
2023-07-03T11:54:01.760Z,99549.88
2023-07-03T11:56:50.309Z,99545.41
2023-07-03T11:59:32.362Z,99550.28
2023-07-03T12:02:46.711Z,99555.75
2023-07-03T12:05:54.103Z,99557.69
2023-07-03T12:08:46.115Z,99555.84
2023-07-03T12:11:16.431Z,99562.66
2023-07-03T12:13:51.596Z,99555.59
2023-07-03T12:16:22.290Z,99561.06
2023-07-03T12:18:59.445Z,99557.72
2023-07-03T12:21:34.404Z,99579.97
2023-07-03T12:24:03.934Z,99564.47
2023-07-03T12:26:33.092Z,99590.19
2023-07-03T12:29:05.817Z,99570.84
2023-07-03T12:31:34.972Z,99563.59
2023-07-03T12:34:03.132Z,99595.59
2023-07-03T12:36:35.139Z,99583.75
2023-07-03T12:39:15.347Z,99597.53
2023-07-03T12:41:44.193Z,99579.66
2023-07-03T12:44:13.229Z,99576.44
2023-07-03T12:46:43.124Z,99587.84
2023-07-03T12:49:14.002Z,99606.47
2023-07-03T12:51:50.543Z,99622.69
2023-07-03T12:54:21.722Z,99624.38
2023-07-03T12:56:51.252Z,99629.50
2023-07-03T12:59:24.342Z,99626.81
2023-07-03T13:01:55.529Z,99633.91
2023-07-03T13:04:29.333Z,99642.13
2023-07-03T13:06:58.561Z,99644.69
2023-07-03T13:09:30.328Z,99639.16
2023-07-03T13:11:58.514Z,99647.66
2023-07-03T13:14:28.971Z,99645.09
2023-07-03T13:16:59.094Z,99648.53
2023-07-03T13:19:31.777Z,99654.66
2023-07-03T13:22:03.312Z,99669.28
2023-07-03T13:24:33.032Z,99668.97
2023-07-03T13:27:01.943Z,99661.59
2023-07-03T13:29:33.172Z,99668.16
2023-07-03T13:32:15.666Z,99660.72
2023-07-03T13:34:55.903Z,99664.56
2023-07-03T13:37:25.629Z,99674.03
2023-07-03T13:40:02.070Z,99687.44
2023-07-03T13:42:32.793Z,99686.81
2023-07-03T13:45:01.032Z,99685.84
2023-07-03T13:47:29.695Z,99694.34
2023-07-03T13:49:58.730Z,99710.81
2023-07-03T13:52:27.086Z,99717.50
2023-07-03T13:54:59.806Z,99722.22
2023-07-03T13:57:28.068Z,99720.91
2023-07-03T13:59:56.353Z,99719.78
2023-07-03T14:02:34.670Z,99734.81
2023-07-03T14:05:10.632Z,99721.50
2023-07-03T14:07:38.799Z,99724.47
2023-07-03T14:10:10.219Z,99716.91
2023-07-03T14:12:38.605Z,99705.97
2023-07-03T14:15:15.853Z,99731.22
2023-07-03T14:17:45.104Z,99734.72
2023-07-03T14:20:14.206Z,99703.63
2023-07-03T14:22:42.766Z,99737.09
2023-07-03T14:25:14.941Z,99731.38
2023-07-03T14:27:44.231Z,99732.13
2023-07-03T14:30:14.200Z,99731.66
2023-07-03T14:32:54.916Z,99736.59
2023-07-03T14:35:24.585Z,99732.19
2023-07-03T14:37:58.582Z,99752.16
2023-07-03T14:40:28.519Z,99753.34
2023-07-03T14:42:56.848Z,99736.00
2023-07-03T14:45:24.936Z,99750.59
2023-07-03T14:47:53.077Z,99751.41
2023-07-03T14:50:21.297Z,99747.41
2023-07-03T14:52:50.776Z,99755.50
2023-07-03T14:55:19.883Z,99751.56
2023-07-03T14:57:51.764Z,99767.13
2023-07-03T15:00:21.824Z,99766.19
2023-07-03T15:02:51.675Z,99762.97
2023-07-03T15:05:21.922Z,99777.84
2023-07-03T15:07:53.270Z,99754.09
2023-07-03T15:10:22.139Z,99772.94
2023-07-03T15:12:51.707Z,99759.72
2023-07-03T15:15:20.194Z,99765.84
2023-07-03T15:17:52.465Z,99760.13
2023-07-03T15:20:21.176Z,99739.28
2023-07-03T15:22:52.011Z,99757.88
2023-07-03T15:25:20.566Z,99754.31
2023-07-03T15:27:48.722Z,99768.78
2023-07-03T15:30:18.360Z,99775.53
2023-07-03T15:32:51.845Z,99782.06
2023-07-03T15:35:21.030Z,99776.16
2023-07-03T15:37:49.387Z,99779.22
2023-07-03T15:40:17.703Z,99785.88
2023-07-03T15:42:46.682Z,99774.22
2023-07-03T15:45:15.995Z,99784.44
2023-07-03T15:47:47.100Z,99773.19
2023-07-03T15:50:16.104Z,99778.38
2023-07-03T15:52:44.292Z,99792.00
2023-07-03T15:55:12.410Z,99795.66
2023-07-03T15:57:40.452Z,99807.69
2023-07-03T16:00:09.862Z,99816.59
2023-07-03T16:02:39.371Z,99842.13
2023-07-03T16:05:09.561Z,99829.03
2023-07-03T16:07:37.690Z,99816.44
2023-07-03T16:10:06.643Z,99808.41
2023-07-03T16:12:34.684Z,99814.28
2023-07-03T16:15:02.854Z,99807.34
2023-07-03T16:17:32.886Z,99812.69
2023-07-03T16:20:06.250Z,99810.00
2023-07-03T16:22:39.630Z,99822.47
2023-07-03T16:25:09.184Z,99817.47
2023-07-03T16:27:39.456Z,99811.75
2023-07-03T16:30:09.051Z,99840.31
2023-07-03T16:32:37.377Z,99841.63
2023-07-03T16:35:06.159Z,99840.88
2023-07-03T16:37:34.328Z,99842.00
2023-07-03T16:40:04.040Z,99836.38
2023-07-03T16:42:32.270Z,99843.25
2023-07-03T16:45:00.481Z,99860.34
2023-07-03T16:47:28.859Z,99852.59
2023-07-03T16:49:57.241Z,99824.97
2023-07-03T16:52:25.310Z,99846.25
2023-07-03T16:54:54.197Z,99836.53
2023-07-03T16:57:23.710Z,99851.59
2023-07-03T16:59:52.015Z,99856.75
2023-07-03T17:02:20.568Z,99865.31
2023-07-03T17:04:48.705Z,99868.34
2023-07-03T17:07:16.708Z,99870.66
2023-07-03T17:09:46.183Z,99868.06
2023-07-03T17:12:14.362Z,99867.84
2023-07-03T17:14:44.521Z,99866.59
2023-07-03T17:17:12.872Z,99871.31
2023-07-03T17:19:41.768Z,99864.97
2023-07-03T17:22:09.910Z,99880.22
2023-07-03T17:24:38.423Z,99871.44
2023-07-03T17:27:06.779Z,99876.06
2023-07-03T17:29:36.381Z,99881.53
2023-07-03T17:32:11.282Z,99875.41
2023-07-03T17:34:40.328Z,99882.00
2023-07-03T17:37:08.562Z,99882.22
2023-07-03T17:39:36.666Z,99885.97
2023-07-03T17:42:05.636Z,99893.16
2023-07-03T17:44:33.856Z,99892.97
2023-07-03T17:47:02.028Z,99903.78
2023-07-03T17:49:33.241Z,99914.63
2023-07-03T17:52:01.810Z,99909.50
2023-07-03T17:54:30.119Z,99911.19
2023-07-03T17:56:58.262Z,99915.94
2023-07-03T17:59:26.403Z,99923.47
2023-07-03T18:01:54.773Z,99927.22
2023-07-03T18:04:23.537Z,99915.00
2023-07-03T18:06:52.993Z,99918.13
2023-07-03T18:09:21.216Z,99913.09
2023-07-03T18:11:49.381Z,99903.09
2023-07-03T18:14:17.453Z,99905.78
2023-07-03T18:16:46.214Z,99919.59
2023-07-03T18:19:14.436Z,99904.19
2023-07-03T18:21:42.520Z,99899.56
2023-07-03T18:24:12.487Z,99901.72
2023-07-03T18:26:40.655Z,99906.31
2023-07-03T18:29:09.408Z,99911.38
2023-07-03T18:31:37.611Z,99913.19
2023-07-03T18:34:05.717Z,99918.56
2023-07-03T18:36:35.786Z,99930.25
2023-07-03T18:39:04.116Z,99931.00
2023-07-03T18:41:33.512Z,99923.91
2023-07-03T18:44:01.922Z,99933.88
2023-07-03T18:46:30.211Z,99937.66
2023-07-03T18:48:58.769Z,99938.47
2023-07-03T18:51:27.200Z,99938.81
2023-07-03T18:53:55.480Z,99933.69
2023-07-03T18:56:23.583Z,99934.84
2023-07-03T18:58:52.989Z,99926.06
2023-07-03T19:01:22.005Z,99930.84
2023-07-03T19:03:50.119Z,99918.44
2023-07-03T19:06:20.446Z,99922.28
2023-07-03T19:08:48.674Z,99939.66
2023-07-03T19:11:16.904Z,99940.59
2023-07-03T19:13:45.165Z,99934.53
2023-07-03T19:16:16.020Z,99935.56
2023-07-03T19:18:45.950Z,99938.25
2023-07-03T19:21:14.649Z,99942.75
2023-07-03T19:23:43.193Z,99934.16
2023-07-03T19:26:12.244Z,99930.00
2023-07-03T19:28:40.789Z,99932.31
2023-07-03T19:31:09.604Z,99946.78
2023-07-03T19:33:39.293Z,99945.19
2023-07-03T19:36:13.991Z,99952.84
2023-07-03T19:38:43.607Z,99949.72
2023-07-03T19:41:12.421Z,99957.38
2023-07-03T19:43:41.936Z,99962.19
2023-07-03T19:46:10.711Z,99956.28
2023-07-03T19:48:40.586Z,99969.66
2023-07-03T19:51:08.893Z,99955.16
2023-07-03T19:53:37.517Z,99974.78
2023-07-03T19:56:05.731Z,99974.97
2023-07-03T19:58:33.802Z,99976.31
2023-07-03T20:01:02.745Z,99983.78
2023-07-03T20:03:31.311Z,99985.72
2023-07-03T20:06:01.073Z,100000.22
2023-07-03T20:08:29.254Z,100012.00
2023-07-03T20:11:01.672Z,100001.00
2023-07-03T20:13:30.769Z,100015.53
2023-07-03T20:16:02.993Z,100014.63
2023-07-03T20:18:31.275Z,100029.84
2023-07-03T20:21:01.697Z,100025.53
2023-07-03T20:23:30.133Z,100021.81
2023-07-03T20:25:58.975Z,100045.25
2023-07-03T20:28:27.505Z,100032.81
2023-07-03T20:30:55.932Z,100027.25
2023-07-03T20:33:24.245Z,100028.00
2023-07-03T20:36:13.476Z,100047.28
2023-07-03T20:38:41.880Z,100022.97
2023-07-03T20:41:11.897Z,100025.63
2023-07-03T20:43:41.499Z,100026.72
2023-07-03T20:46:12.177Z,100017.41
2023-07-03T20:48:40.602Z,100023.75
2023-07-03T20:51:14.078Z,100020.16
2023-07-03T20:54:01.279Z,100018.25
2023-07-03T20:56:30.949Z,100003.97
2023-07-03T20:59:00.329Z,100013.09
2023-07-03T21:01:32.198Z,100022.41
2023-07-03T21:04:04.181Z,100015.16
2023-07-03T21:06:34.424Z,100007.75
2023-07-03T21:09:05.778Z,100010.00
2023-07-03T21:11:36.353Z,100006.84
2023-07-03T21:14:07.181Z,100007.59
2023-07-03T21:16:37.228Z,99993.66
2023-07-03T21:19:08.244Z,100008.19
2023-07-03T21:21:36.542Z,99995.53
2023-07-03T21:24:12.190Z,100009.81
2023-07-03T21:26:41.123Z,99993.13
2023-07-03T21:29:09.481Z,100001.47
2023-07-03T21:31:38.321Z,99993.47
2023-07-03T21:34:07.086Z,99997.22
2023-07-03T21:36:35.237Z,100005.69
2023-07-03T21:39:06.138Z,100004.97
2023-07-03T21:41:36.801Z,100008.56
2023-07-03T21:44:12.428Z,100011.34
2023-07-03T21:46:41.988Z,100002.38
2023-07-03T21:49:14.334Z,100008.56
2023-07-03T21:51:43.381Z,100003.22
2023-07-03T21:54:12.843Z,100010.50
2023-07-03T21:56:43.210Z,100012.16
2023-07-03T21:59:13.134Z,100012.94
2023-07-03T22:01:43.050Z,100012.78
2023-07-03T22:04:11.753Z,100027.75
2023-07-03T22:06:39.850Z,100010.97
2023-07-03T22:09:07.875Z,100017.94
2023-07-03T22:11:37.325Z,100018.19
2023-07-03T22:14:05.656Z,100019.91
2023-07-03T22:16:33.854Z,100007.44
2023-07-03T22:19:02.057Z,100008.91
2023-07-03T22:21:31.506Z,100019.00
2023-07-03T22:23:59.559Z,100017.63
2023-07-03T22:26:27.635Z,100008.59
2023-07-03T22:28:57.743Z,100008.25
2023-07-03T22:31:27.584Z,100008.19
2023-07-03T22:33:55.945Z,100017.06
2023-07-03T22:36:24.531Z,100015.06
2023-07-03T22:38:52.512Z,100024.28
2023-07-03T22:41:23.492Z,100020.53
2023-07-03T22:43:51.742Z,100024.22
2023-07-03T22:46:21.128Z,100012.72
2023-07-03T22:48:53.879Z,100033.94
2023-07-03T22:51:25.339Z,100022.56
2023-07-03T22:53:53.573Z,100024.81
2023-07-03T22:56:21.691Z,100026.53
2023-07-03T22:58:49.771Z,100016.44
2023-07-03T23:01:17.898Z,100025.44
2023-07-03T23:03:47.489Z,100016.81
2023-07-03T23:06:15.702Z,100021.13
2023-07-03T23:08:44.645Z,100023.34
2023-07-03T23:11:12.750Z,100026.94
2023-07-03T23:13:41.072Z,100019.09
2023-07-03T23:16:10.497Z,100023.66
2023-07-03T23:18:41.617Z,100020.13
2023-07-03T23:21:16.765Z,100012.72
2023-07-03T23:23:46.109Z,100014.56
2023-07-03T23:26:16.047Z,100016.81
2023-07-03T23:28:46.366Z,100007.25
2023-07-03T23:31:16.271Z,99998.56
2023-07-03T23:33:49.190Z,100004.72
2023-07-03T23:36:23.745Z,100009.66
2023-07-03T23:38:53.001Z,100011.88
2023-07-03T23:41:21.274Z,100008.34
2023-07-03T23:43:49.957Z,100014.53
2023-07-03T23:46:19.362Z,100008.41
2023-07-03T23:48:48.613Z,100005.00
2023-07-03T23:51:17.786Z,100014.53
2023-07-03T23:53:48.728Z,99998.53
2023-07-03T23:56:19.454Z,100010.75
2023-07-03T23:58:49.367Z,100007.91
